Time;durP1;ratioP1;P1;durP2;ratioP2;P2;SDS_P1;SDS_P2;PMS_P1;PMS_P2;Temp;Humidity;BMP_temperature;BMP_pressure;BME280_temperature;BME280_humidity;BME280_pressure;Samples;Min_cycle;Max_cycle;Signal;HPM_P1;HPM_P2
2023/11/13 00:01:46;;;;;;;;;14.50;9.25;;;;;14.68;94.48;100613.75;5072623;28;45443;-63
2023/11/13 00:04:11;;;;;;;;;9.00;6.00;;;;;14.73;94.21;100620.59;5063580;27;45672;-63
2023/11/13 00:06:36;;;;;;;;;7.75;4.50;;;;;14.73;94.21;100596.41;5061948;28;50366;-63
2023/11/13 00:09:02;;;;;;;;;7.75;6.75;;;;;14.74;94.30;100611.59;5076772;28;46070;-63
2023/11/13 00:11:28;;;;;;;;;9.50;5.75;;;;;14.68;94.32;100592.25;5061239;28;45572;-63
2023/11/13 00:13:54;;;;;;;;;8.00;7.00;;;;;14.72;94.19;100593.84;5065264;28;45367;-63
2023/11/13 00:16:19;;;;;;;;;12.00;6.00;;;;;14.70;93.93;100584.97;5070098;27;45373;-63
2023/11/13 00:18:45;;;;;;;;;7.00;4.25;;;;;14.71;94.04;100575.97;5060153;28;70593;-63
2023/11/13 00:21:15;;;;;;;;;7.50;5.50;;;;;14.74;94.28;100574.00;5061127;28;45621;-63
2023/11/13 00:23:40;;;;;;;;;7.50;6.50;;;;;14.74;94.01;100574.00;5061074;28;45516;-63
2023/11/13 00:26:06;;;;;;;;;6.50;5.00;;;;;14.75;94.09;100585.59;5076761;28;45632;-63
2023/11/13 00:28:31;;;;;;;;;8.50;6.00;;;;;14.73;94.13;100582.97;5060568;28;45673;-63
2023/11/13 00:30:56;;;;;;;;;9.25;8.25;;;;;14.63;94.01;100565.63;5068944;28;45343;-63
2023/11/13 00:33:22;;;;;;;;;7.75;4.75;;;;;14.67;93.44;100588.69;5075485;28;68760;-63
2023/11/13 00:35:47;;;;;;;;;2.75;0.75;;;;;14.68;93.30;100571.63;5060007;28;71601;-63
2023/11/13 00:38:13;;;;;;;;;10.75;7.25;;;;;14.69;93.39;100576.06;5072666;28;45441;-63
2023/11/13 00:40:39;;;;;;;;;7.00;3.25;;;;;14.64;93.26;100572.75;5072711;28;45626;-63
2023/11/13 00:43:04;;;;;;;;;6.75;3.75;;;;;14.58;93.00;100573.00;5069264;27;45584;-63
2023/11/13 00:45:31;;;;;;;;;5.25;4.25;;;;;14.69;93.13;100592.16;5069245;27;45353;-63
2023/11/13 00:47:57;;;;;;;;;10.50;6.00;;;;;14.60;93.01;100579.19;5070189;28;47234;-63
2023/11/13 00:50:22;;;;;;;;;7.00;3.25;;;;;14.58;93.16;100581.97;5079647;27;45497;-63
2023/11/13 00:52:47;;;;;;;;;10.00;5.00;;;;;14.62;93.30;100590.75;5062358;27;45345;-63
2023/11/13 00:55:13;;;;;;;;;6.50;4.00;;;;;14.53;93.26;100553.59;5059793;28;63987;-63
2023/11/13 00:57:38;;;;;;;;;13.50;4.25;;;;;14.59;93.12;100564.06;5077522;28;46706;-63
2023/11/13 01:00:08;;;;;;;;;6.75;4.00;;;;;14.58;93.51;100554.22;5068718;27;45243;-63
2023/11/13 01:02:34;;;;;;;;;5.25;4.50;;;;;14.52;93.60;100550.03;5072281;28;45505;-63
2023/11/13 01:04:59;;;;;;;;;7.00;3.75;;;;;14.50;93.73;100543.88;5060548;28;45319;-63
2023/11/13 01:07:25;;;;;;;;;9.50;4.50;;;;;14.43;93.79;100529.91;5058515;28;49380;-63
2023/11/13 01:09:51;;;;;;;;;7.00;5.00;;;;;14.53;93.83;100540.16;5060438;28;45334;-63
2023/11/13 01:12:18;;;;;;;;;9.50;6.25;;;;;14.53;93.97;100534.78;5060367;28;45615;-63
2023/11/13 01:14:44;;;;;;;;;5.25;4.00;;;;;14.56;94.06;100537.31;5070503;28;45475;-63
2023/11/13 01:17:09;;;;;;;;;13.25;6.50;;;;;14.59;94.13;100548.78;5074418;28;47905;-63
2023/11/13 01:19:35;;;;;;;;;7.75;4.50;;;;;14.54;94.12;100539.22;5066261;28;45389;-63
2023/11/13 01:22:00;;;;;;;;;5.25;3.50;;;;;14.60;94.33;100546.97;5073762;28;45310;-62
2023/11/13 01:24:25;;;;;;;;;6.75;3.50;;;;;14.58;94.19;100530.03;5070071;28;45803;-63
2023/11/13 01:26:50;;;;;;;;;8.50;4.50;;;;;14.54;94.22;100510.53;5075520;27;45927;-63
2023/11/13 01:29:16;;;;;;;;;5.00;4.00;;;;;14.52;94.66;100482.91;5075365;28;45408;-63
2023/11/13 01:31:41;;;;;;;;;7.00;0.00;;;;;14.46;94.48;100469.78;5072305;28;60974;-63
2023/11/13 01:34:12;;;;;;;;;5.50;2.00;;;;;14.55;94.58;100492.59;5068802;28;56480;-63
2023/11/13 01:36:37;;;;;;;;;10.00;4.25;;;;;14.56;94.64;100505.06;5059651;28;45662;-62
2023/11/13 01:39:03;;;;;;;;;6.25;5.00;;;;;14.54;94.64;100507.00;5059993;28;45362;-63
2023/11/13 01:41:33;;;;;;;;;3.50;2.25;;;;;14.53;94.97;100510.59;5059938;28;45496;-63
2023/11/13 01:43:58;;;;;;;;;7.25;2.75;;;;;14.47;95.07;100506.44;5068935;28;46017;-63
2023/11/13 01:46:24;;;;;;;;;5.50;3.25;;;;;14.49;95.10;100501.84;5071214;28;53472;-63
2023/11/13 01:48:53;;;;;;;;;4.00;4.00;;;;;14.48;95.23;100489.34;5070964;28;45514;-63
2023/11/13 01:51:19;;;;;;;;;6.50;4.50;;;;;14.42;95.17;100471.75;5073298;28;45332;-63
2023/11/13 01:53:45;;;;;;;;;7.25;4.25;;;;;14.35;95.17;100469.47;5059649;28;45431;-63
2023/11/13 01:56:11;;;;;;;;;5.75;3.25;;;;;14.39;95.37;100471.06;5059444;28;46125;-63
2023/11/13 01:58:37;;;;;;;;;3.50;3.25;;;;;14.45;95.46;100489.53;5059307;28;45693;-63
2023/11/13 02:01:03;;;;;;;;;5.00;3.75;;;;;14.45;95.21;100486.84;5074882;28;45434;-63
2023/11/13 02:03:28;;;;;;;;;3.00;2.75;;;;;14.48;95.55;100500.09;5071597;28;45321;-63
2023/11/13 02:05:54;;;;;;;;;5.25;3.00;;;;;14.43;95.37;100491.41;5060535;27;47088;-63
2023/11/13 02:08:20;;;;;;;;;6.75;3.50;;;;;14.28;95.82;100450.13;5066643;28;45406;-62
2023/11/13 02:10:46;;;;;;;;;3.00;2.25;;;;;14.44;95.43;100496.72;5072891;28;45800;-63
2023/11/13 02:13:13;;;;;;;;;2.25;2.25;;;;;14.52;95.70;100495.47;5059448;28;45322;-62
2023/11/13 02:15:40;;;;;;;;;3.50;2.00;;;;;14.53;95.51;100495.34;5059205;28;45393;-63
2023/11/13 02:18:06;;;;;;;;;6.00;5.00;;;;;14.43;95.62;100478.00;5075060;28;45497;-63
2023/11/13 02:20:32;;;;;;;;;4.00;2.50;;;;;14.50;95.63;100475.84;5060145;27;45642;-63
2023/11/13 02:22:59;;;;;;;;;4.50;2.00;;;;;14.44;95.58;100474.38;5070693;28;45422;-62
2023/11/13 02:25:25;;;;;;;;;4.25;3.00;;;;;14.43;96.12;100486.94;5073122;27;45422;-63
2023/11/13 02:27:55;;;;;;;;;4.25;1.25;;;;;14.39;96.29;100466.56;5058014;28;45471;-62
2023/11/13 02:30:21;;;;;;;;;2.75;2.75;;;;;14.45;96.37;100468.91;5065907;28;45383;-63
2023/11/13 02:32:48;;;;;;;;;6.00;3.00;;;;;14.42;96.13;100461.03;5078208;28;46009;-63
2023/11/13 02:35:14;;;;;;;;;5.25;2.00;;;;;14.39;96.47;100438.84;5071904;28;46241;-63
2023/11/13 02:37:40;;;;;;;;;3.00;2.00;;;;;14.47;96.27;100460.78;5072002;28;45517;-63
2023/11/13 02:40:09;;;;;;;;;2.00;2.00;;;;;14.42;96.50;100418.06;5072030;27;45592;-63
2023/11/13 02:42:35;;;;;;;;;4.00;2.00;;;;;14.42;96.80;100426.09;5060023;28;45552;-63
2023/11/13 02:45:00;;;;;;;;;4.00;2.00;;;;;14.39;96.56;100420.91;5070727;27;45297;-62
2023/11/13 02:47:26;;;;;;;;;2.00;2.00;;;;;14.41;96.87;100418.13;5064678;28;64312;-63
2023/11/13 02:49:51;;;;;;;;;3.00;2.00;;;;;14.31;96.91;100387.38;5071312;27;45545;-63
2023/11/13 02:52:16;;;;;;;;;5.25;4.00;;;;;14.32;97.13;100370.31;5058760;28;45371;-63
2023/11/13 02:54:42;;;;;;;;;3.50;2.00;;;;;14.34;97.45;100376.47;5058900;28;45458;-63
2023/11/13 02:57:07;;;;;;;;;4.00;2.00;;;;;14.29;97.73;100424.16;5058732;28;45372;-63
2023/11/13 02:59:32;;;;;;;;;3.75;3.75;;;;;14.35;97.38;100424.72;5058616;27;45358;-63
2023/11/13 03:01:58;;;;;;;;;7.00;4.00;;;;;14.38;97.77;100427.25;5070068;28;45335;-63
2023/11/13 03:04:23;;;;;;;;;5.25;4.25;;;;;14.35;97.95;100427.41;5057376;28;60615;-63
2023/11/13 03:06:48;;;;;;;;;4.25;2.00;;;;;14.37;97.66;100413.91;5057764;28;61107;-62
2023/11/13 03:09:13;;;;;;;;;5.75;3.00;;;;;14.36;97.92;100406.78;5058471;28;45323;-62
2023/11/13 03:11:39;;;;;;;;;5.25;3.75;;;;;14.43;98.09;100413.53;5058608;28;45318;-63
2023/11/13 03:14:04;;;;;;;;;5.50;3.50;;;;;14.39;98.31;100404.78;5063937;28;46096;-63
2023/11/13 03:16:29;;;;;;;;;4.50;3.50;;;;;14.33;98.35;100388.13;5076107;28;45409;-63
2023/11/13 03:18:55;;;;;;;;;6.00;5.25;;;;;14.42;98.19;100398.41;5072134;28;45294;-62
2023/11/13 03:21:20;;;;;;;;;7.00;4.00;;;;;14.32;97.95;100375.69;5058481;28;45530;-63
2023/11/13 03:23:46;;;;;;;;;5.25;3.75;;;;;14.38;98.40;100376.22;5058319;28;46517;-62
2023/11/13 03:26:11;;;;;;;;;4.00;2.25;;;;;14.46;98.57;100394.59;5058579;28;45414;-63
2023/11/13 03:28:36;;;;;;;;;6.00;4.00;;;;;14.45;98.38;100377.63;5058034;28;45295;-63
2023/11/13 03:31:02;;;;;;;;;7.75;4.25;;;;;14.43;98.87;100355.34;5065911;28;45656;-63
2023/11/13 03:33:27;;;;;;;;;3.75;3.00;;;;;14.51;98.63;100360.28;5072316;27;50437;-63
2023/11/13 03:35:52;;;;;;;;;6.25;3.75;;;;;14.51;98.76;100352.22;5057998;28;52816;-63
2023/11/13 03:38:18;;;;;;;;;3.75;3.00;;;;;14.51;98.66;100354.06;5059486;28;45370;-63
2023/11/13 03:40:43;;;;;;;;;7.25;5.25;;;;;14.50;98.48;100357.69;5061884;28;45544;-63
2023/11/13 03:43:09;;;;;;;;;3.75;3.00;;;;;14.54;98.88;100356.56;5068412;28;46023;-63
2023/11/13 03:45:34;;;;;;;;;4.00;2.25;;;;;14.60;98.70;100356.25;5069436;27;45463;-63
2023/11/13 03:47:59;;;;;;;;;4.00;4.00;;;;;14.56;99.04;100331.34;5078258;28;60910;-62
2023/11/13 03:50:25;;;;;;;;;7.25;5.00;;;;;14.63;99.16;100330.13;5069046;28;52976;-63
2023/11/13 03:52:50;;;;;;;;;6.00;3.75;;;;;14.63;99.12;100331.91;5061321;28;47056;-62
2023/11/13 03:55:16;;;;;;;;;7.25;4.25;;;;;14.66;99.20;100331.75;5061448;28;45299;-63
2023/11/13 03:57:41;;;;;;;;;8.00;4.75;;;;;14.63;99.20;100327.44;5059218;28;71612;-63
2023/11/13 04:00:07;;;;;;;;;8.00;5.00;;;;;14.68;99.37;100329.84;5060187;27;72306;-62
2023/11/13 04:02:33;;;;;;;;;8.75;6.75;;;;;14.69;99.35;100320.84;5074895;28;45393;-62
2023/11/13 04:04:58;;;;;;;;;5.00;5.00;;;;;14.66;99.35;100318.31;5061392;28;45671;-63
2023/11/13 04:07:24;;;;;;;;;7.50;4.00;;;;;14.73;99.63;100317.00;5061191;28;45456;-62
2023/11/13 04:09:49;;;;;;;;;5.25;5.00;;;;;14.75;99.95;100320.50;5061397;28;45519;-63
2023/11/13 04:12:15;;;;;;;;;5.50;3.75;;;;;14.75;100.00;100315.13;5061068;28;45497;-63
2023/11/13 04:14:40;;;;;;;;;6.75;5.75;;;;;14.70;100.00;100301.09;5060803;28;45452;-63
2023/11/13 04:17:07;;;;;;;;;9.50;4.00;;;;;14.73;100.00;100305.41;5078055;28;45465;-62
2023/11/13 04:19:32;;;;;;;;;5.50;4.00;;;;;14.76;100.00;100300.72;5067693;28;45653;-63
2023/11/13 04:21:58;;;;;;;;;7.25;4.25;;;;;14.79;100.00;100303.22;5074442;28;45967;-63
2023/11/13 04:24:23;;;;;;;;;5.75;4.50;;;;;14.77;100.00;100304.28;5061113;28;45304;-63
2023/11/13 04:26:49;;;;;;;;;7.50;4.75;;;;;14.80;100.00;100312.16;5059769;28;45422;-62
2023/11/13 04:29:14;;;;;;;;;6.75;4.00;;;;;14.82;100.00;100304.91;5059504;28;45510;-63
2023/11/13 04:31:40;;;;;;;;;7.00;6.00;;;;;14.85;100.00;100304.72;5074132;28;48024;-63
2023/11/13 04:34:05;;;;;;;;;5.50;5.50;;;;;14.86;100.00;100289.47;5071355;28;45489;-63
2023/11/13 04:36:32;;;;;;;;;6.50;4.00;;;;;14.73;100.00;100263.28;5076182;27;45405;-63
2023/11/13 04:38:57;;;;;;;;;6.25;3.75;;;;;14.87;100.00;100286.69;5060885;28;45501;-63
2023/11/13 04:41:23;;;;;;;;;7.00;4.75;;;;;14.87;100.00;100269.66;5060268;28;57995;-62
2023/11/13 04:43:49;;;;;;;;;11.75;6.75;;;;;14.93;100.00;100258.56;5073107;28;45417;-63
2023/11/13 04:46:15;;;;;;;;;5.00;2.25;;;;;14.97;100.00;100262.84;5066980;27;45363;-63
2023/11/13 04:48:40;;;;;;;;;8.75;5.00;;;;;14.93;100.00;100254.06;5079591;28;45780;-63
2023/11/13 04:51:06;;;;;;;;;4.00;2.50;;;;;15.00;100.00;100255.44;5074672;28;45405;-63
2023/11/13 04:53:32;;;;;;;;;4.50;3.25;;;;;14.95;100.00;100237.84;5060623;28;45318;-63
2023/11/13 04:55:58;;;;;;;;;4.50;2.50;;;;;15.04;100.00;100266.88;5060610;28;45478;-63
2023/11/13 04:58:23;;;;;;;;;6.75;3.00;;;;;15.01;100.00;100256.31;5060385;28;45360;-63
2023/11/13 05:00:49;;;;;;;;;5.75;5.00;;;;;15.07;100.00;100268.50;5064337;28;48130;-63
2023/11/13 05:03:14;;;;;;;;;4.50;3.25;;;;;15.09;100.00;100274.69;5070727;27;45579;-63
2023/11/13 05:05:40;;;;;;;;;5.25;3.00;;;;;15.10;100.00;100281.78;5058366;28;62489;-62
2023/11/13 05:08:06;;;;;;;;;4.00;3.50;;;;;15.14;100.00;100277.97;5069067;28;45509;-63
2023/11/13 05:10:32;;;;;;;;;3.00;3.00;;;;;15.15;100.00;100250.13;5076986;27;46208;-63
2023/11/13 05:12:58;;;;;;;;;6.50;5.25;;;;;15.17;100.00;100241.00;5060423;28;45488;-63
2023/11/13 05:15:24;;;;;;;;;6.00;3.25;;;;;15.15;100.00;100224.13;5071957;28;45402;-63
2023/11/13 05:17:49;;;;;;;;;3.75;3.50;;;;;15.15;100.00;100216.06;5077519;28;45404;-63
2023/11/13 05:20:16;;;;;;;;;5.00;5.00;;;;;15.19;100.00;100224.78;5075165;28;46904;-63
2023/11/13 05:22:41;;;;;;;;;7.75;4.75;;;;;15.22;100.00;100216.56;5070981;28;45326;-63
2023/11/13 05:25:08;;;;;;;;;5.75;5.00;;;;;15.26;100.00;100236.03;5062248;27;57457;-63
2023/11/13 05:27:33;;;;;;;;;8.00;4.00;;;;;15.23;100.00;100231.69;5060066;28;45462;-63
2023/11/13 05:29:58;;;;;;;;;4.25;3.50;;;;;15.29;100.00;100222.44;5059533;28;46287;-63
2023/11/13 05:32:24;;;;;;;;;3.00;3.00;;;;;15.26;100.00;100217.22;5079915;28;57671;-63
2023/11/13 05:34:49;;;;;;;;;2.50;2.50;;;;;15.32;100.00;100231.16;5074564;28;45505;-63
2023/11/13 05:37:15;;;;;;;;;7.25;3.50;;;;;15.28;100.00;100220.69;5071357;28;45416;-63
2023/11/13 05:39:41;;;;;;;;;4.00;3.00;;;;;15.30;100.00;100234.88;5061882;27;45825;-63
2023/11/13 05:42:06;;;;;;;;;6.25;4.00;;;;;15.28;100.00;100220.69;5059998;28;45622;-63
2023/11/13 05:44:34;;;;;;;;;6.00;4.75;;;;;15.33;100.00;100215.88;5060313;28;45438;-63
2023/11/13 05:46:59;;;;;;;;;6.00;4.00;;;;;15.38;100.00;100224.53;5065084;28;45403;-63
2023/11/13 05:49:25;;;;;;;;;5.50;5.00;;;;;15.30;100.00;100211.56;5074580;28;55750;-63
2023/11/13 05:51:50;;;;;;;;;5.75;4.00;;;;;15.31;100.00;100204.38;5059369;28;57863;-63
2023/11/13 05:54:15;;;;;;;;;5.50;3.00;;;;;15.39;100.00;100226.28;5058791;28;66151;-63
2023/11/13 05:56:40;;;;;;;;;4.25;4.25;;;;;15.44;100.00;100234.06;5059497;28;48232;-63
2023/11/13 05:59:06;;;;;;;;;6.00;4.50;;;;;15.46;100.00;100229.47;5058813;28;51737;-63
2023/11/13 06:01:31;;;;;;;;;5.75;4.75;;;;;15.38;100.00;100224.53;5068013;28;65561;-63
2023/11/13 06:04:01;;;;;;;;;7.00;4.50;;;;;15.45;100.00;100233.09;5063926;27;45378;-63
2023/11/13 06:06:28;;;;;;;;;3.50;3.50;;;;;15.46;100.00;100234.84;5059397;28;45386;-63
2023/11/13 06:08:53;;;;;;;;;6.50;5.00;;;;;15.52;100.00;100243.41;5059277;28;46488;-63
2023/11/13 06:11:19;;;;;;;;;5.00;4.00;;;;;15.56;100.00;100242.25;5058549;28;73309;-63
2023/11/13 06:13:46;;;;;;;;;7.75;7.00;;;;;15.58;100.00;100258.28;5074233;28;45539;-63
2023/11/13 06:16:12;;;;;;;;;8.25;5.00;;;;;15.50;100.00;100236.38;5076136;27;45256;-63
2023/11/13 06:18:47;;;;;;;;;7.00;4.50;;;;;15.52;100.00;100231.78;5076203;27;45343;-63
2023/11/13 06:21:13;;;;;;;;;5.75;4.00;;;;;15.60;100.00;100234.84;5059284;28;45522;-63
2023/11/13 06:23:42;;;;;;;;;9.50;5.50;;;;;15.57;100.00;100211.69;5059057;28;45508;-63
2023/11/13 06:26:09;;;;;;;;;2.00;2.00;;;;;15.65;100.00;100203.16;5059383;28;45323;-63
2023/11/13 06:28:34;;;;;;;;;5.50;3.75;;;;;15.69;100.00;100169.72;5058700;28;45441;-63
2023/11/13 06:30:59;;;;;;;;;6.00;5.00;;;;;15.70;100.00;100176.84;5066549;28;72223;-63
2023/11/13 06:33:25;;;;;;;;;5.25;5.25;;;;;15.63;100.00;100153.94;5074123;27;45369;-63
2023/11/13 06:35:50;;;;;;;;;7.25;5.00;;;;;15.72;100.00;100161.47;5058678;28;54648;-63
2023/11/13 06:38:15;;;;;;;;;5.00;4.00;;;;;15.66;100.00;100139.44;5058036;28;69091;-63
2023/11/13 06:40:42;;;;;;;;;6.25;5.25;;;;;15.74;100.00;100166.75;5058993;28;45366;-63
2023/11/13 06:43:07;;;;;;;;;5.75;5.50;;;;;15.82;100.00;100177.03;5065659;28;45613;-63
2023/11/13 06:45:33;;;;;;;;;3.50;3.50;;;;;15.83;100.00;100190.41;5067644;27;45276;-63
2023/11/13 06:47:59;;;;;;;;;6.50;5.00;;;;;15.76;100.00;100188.22;5071551;27;45338;-63
2023/11/13 06:50:24;;;;;;;;;5.00;4.00;;;;;15.81;100.00;100199.53;5074315;27;45409;-63
2023/11/13 06:52:50;;;;;;;;;6.00;5.75;;;;;15.84;100.00;100221.75;5059782;27;45375;-63
2023/11/13 06:55:16;;;;;;;;;5.25;5.25;;;;;15.72;100.00;100195.59;5058787;28;45517;-63
2023/11/13 06:57:41;;;;;;;;;6.50;5.00;;;;;15.87;100.00;100228.75;5058583;28;45674;-63
2023/11/13 07:00:08;;;;;;;;;7.25;6.00;;;;;15.89;100.00;100234.91;5057145;28;45305;-63
2023/11/13 07:02:39;;;;;;;;;7.25;4.75;;;;;15.90;100.00;100237.53;5058831;28;45426;-63
2023/11/13 07:05:05;;;;;;;;;10.25;5.50;;;;;15.87;100.00;100221.56;5058679;28;45374;-63
2023/11/13 07:07:30;;;;;;;;;4.75;3.75;;;;;15.87;100.00;100223.34;5065948;28;47564;-64
2023/11/13 07:09:55;;;;;;;;;5.25;5.25;;;;;15.91;100.00;100222.22;5066252;28;53961;-65
2023/11/13 07:12:20;;;;;;;;;4.25;4.25;;;;;15.95;100.00;100233.66;5060144;28;45481;-65
2023/11/13 07:14:46;;;;;;;;;5.25;4.00;;;;;15.95;100.00;100230.97;5070073;28;46461;-64
2023/11/13 07:17:11;;;;;;;;;6.75;5.50;;;;;15.93;100.00;100214.91;5076444;27;46294;-64
2023/11/13 07:19:37;;;;;;;;;6.75;3.50;;;;;16.00;100.00;100218.06;5062491;27;45609;-64
2023/11/13 07:22:06;;;;;;;;;5.75;4.75;;;;;15.98;100.00;100217.31;5068211;28;45596;-64
2023/11/13 07:24:36;;;;;;;;;3.25;3.00;;;;;16.03;100.00;100223.28;5076247;27;45668;-64
2023/11/13 07:27:01;;;;;;;;;5.75;5.00;;;;;16.05;100.00;100224.03;5071835;28;45675;-64
2023/11/13 07:29:26;;;;;;;;;2.00;2.00;;;;;15.82;100.00;100182.41;5070288;28;45512;-65
2023/11/13 07:31:52;;;;;;;;;6.50;4.25;;;;;16.05;100.00;100216.81;5095624;27;45329;-64
2023/11/13 07:34:17;;;;;;;;;4.00;3.00;;;;;16.06;100.00;100221.25;5063014;28;52930;-64
2023/11/13 07:36:42;;;;;;;;;3.50;3.50;;;;;16.11;100.00;100216.44;5079143;27;61153;-64
2023/11/13 07:39:09;;;;;;;;;3.00;2.75;;;;;16.07;100.00;100209.53;5075304;27;45354;-64
2023/11/13 07:41:35;;;;;;;;;4.50;4.50;;;;;16.06;100.00;100199.72;5062784;28;45401;-64
2023/11/13 07:44:01;;;;;;;;;6.00;4.50;;;;;16.15;100.00;100216.25;5073033;28;71954;-64
2023/11/13 07:46:27;;;;;;;;;3.75;3.00;;;;;16.11;100.00;100204.81;5063878;28;46305;-64
2023/11/13 07:48:52;;;;;;;;;4.25;3.00;;;;;16.12;100.00;100198.44;5080655;27;45455;-64
2023/11/13 07:51:18;;;;;;;;;4.00;2.25;;;;;16.10;100.00;100200.38;5074797;28;45311;-64
2023/11/13 07:53:46;;;;;;;;;1.00;1.00;;;;;16.09;100.00;100201.34;5066950;28;45661;-64
2023/11/13 07:56:11;;;;;;;;;2.00;2.00;;;;;16.09;100.00;100206.75;5064798;28;46181;-65
2023/11/13 07:58:37;;;;;;;;;1.00;1.00;;;;;16.22;100.00;100231.91;5068464;28;45751;-64
2023/11/13 08:01:03;;;;;;;;;3.00;3.00;;;;;16.17;100.00;100208.91;5065913;27;45498;-64
2023/11/13 08:03:28;;;;;;;;;0.00;0.00;;;;;16.23;100.00;100220.16;5067458;28;45652;-64
2023/11/13 08:05:54;;;;;;;;;4.25;2.50;;;;;16.20;100.00;100206.88;5063727;28;45511;-64
2023/11/13 08:08:19;;;;;;;;;3.00;2.00;;;;;16.25;100.00;100207.44;5079438;27;55902;-64
2023/11/13 08:10:47;;;;;;;;;3.75;3.50;;;;;16.28;100.00;100223.41;5075814;27;45437;-64
2023/11/13 08:13:14;;;;;;;;;2.00;2.00;;;;;16.31;100.00;100219.69;5060897;28;45438;-64
2023/11/13 08:15:42;;;;;;;;;3.00;3.00;;;;;16.36;100.00;100222.94;5071458;28;45497;-64
2023/11/13 08:18:13;;;;;;;;;3.00;2.50;;;;;16.22;100.00;100185.25;5066834;27;45770;-63
2023/11/13 08:20:42;;;;;;;;;5.50;3.00;;;;;16.37;100.00;100215.72;5064980;27;45500;-63
2023/11/13 08:23:10;;;;;;;;;3.75;3.50;;;;;16.35;100.00;100204.19;5071391;27;45399;-63
2023/11/13 08:25:38;;;;;;;;;3.50;3.50;;;;;16.23;100.00;100187.84;5070980;27;45406;-65
2023/11/13 08:28:06;;;;;;;;;5.75;3.75;;;;;16.35;100.00;100198.78;5072727;27;45446;-63
2023/11/13 08:30:31;;;;;;;;;2.50;2.50;;;;;16.17;100.00;100174.81;5063214;27;45821;-64
2023/11/13 08:32:56;;;;;;;;;3.50;3.00;;;;;16.35;100.00;100202.34;5071040;27;45562;-64
2023/11/13 08:35:22;;;;;;;;;3.75;3.00;;;;;16.40;100.00;100200.22;5073250;27;45409;-64
2023/11/13 08:37:50;;;;;;;;;4.75;2.00;;;;;16.24;100.00;100184.19;5080188;27;45431;-64
2023/11/13 08:40:23;;;;;;;;;2.00;2.00;;;;;16.42;100.00;100222.56;5079560;28;45426;-64
2023/11/13 08:42:49;;;;;;;;;2.00;2.00;;;;;16.28;100.00;100199.19;5076913;27;45720;-64
2023/11/13 08:45:15;;;;;;;;;3.00;3.00;;;;;16.23;100.00;100177.06;5073313;27;45533;-64
2023/11/13 08:47:45;;;;;;;;;2.25;2.00;;;;;16.43;100.00;100218.03;5076106;27;45615;-64
2023/11/13 08:50:12;;;;;;;;;3.25;2.25;;;;;16.38;100.00;100210.22;5063890;27;45532;-64
2023/11/13 08:52:41;;;;;;;;;3.00;2.00;;;;;16.33;100.00;100181.88;5070156;27;46829;-64
2023/11/13 08:55:10;;;;;;;;;2.50;1.00;;;;;16.35;100.00;100191.56;5071146;27;46361;-64
2023/11/13 08:57:41;;;;;;;;;2.00;2.00;;;;;16.47;100.00;100196.16;5074260;27;45453;-64
2023/11/13 09:00:08;;;;;;;;;1.75;1.75;;;;;16.40;100.00;100175.13;5069446;27;45485;-64
2023/11/13 09:02:35;;;;;;;;;3.50;2.75;;;;;16.33;100.00;100155.78;5064779;27;45310;-64
2023/11/13 09:05:04;;;;;;;;;2.00;1.50;;;;;16.41;100.00;100184.94;5068381;28;47223;-64
2023/11/13 09:07:31;;;;;;;;;4.75;2.25;;;;;16.41;100.00;100184.94;5075350;27;45576;-64
2023/11/13 09:09:56;;;;;;;;;2.00;2.00;;;;;16.43;100.00;100197.31;5060164;28;45414;-64
2023/11/13 09:12:22;;;;;;;;;4.25;3.00;;;;;16.40;100.00;100185.88;5073099;27;45672;-64
2023/11/13 09:14:47;;;;;;;;;3.75;3.75;;;;;16.48;100.00;100210.50;5060938;28;45381;-64
2023/11/13 09:17:13;;;;;;;;;3.75;2.25;;;;;16.50;100.00;100203.16;5069138;27;65594;-63
2023/11/13 09:19:41;;;;;;;;;2.00;1.75;;;;;16.50;100.00;100197.78;5071403;27;45317;-63
2023/11/13 09:22:09;;;;;;;;;4.00;3.50;;;;;16.52;100.00;100203.94;5073030;27;45528;-64
2023/11/13 09:24:41;;;;;;;;;2.50;2.50;;;;;16.49;100.00;100204.16;5071195;27;48150;-64
2023/11/13 09:27:11;;;;;;;;;3.25;3.25;;;;;16.48;100.00;100186.25;5073007;27;45533;-64
2023/11/13 09:29:43;;;;;;;;;1.50;1.00;;;;;16.44;100.00;100173.97;5060813;28;45367;-63
2023/11/13 09:32:09;;;;;;;;;1.00;1.00;;;;;16.44;100.00;100177.50;5071555;27;45395;-63
2023/11/13 09:34:35;;;;;;;;;2.00;1.75;;;;;16.45;100.00;100165.75;5068636;27;45569;-62
2023/11/13 09:37:00;;;;;;;;;1.25;1.25;;;;;16.46;100.00;100147.78;5069338;27;45625;-62
2023/11/13 09:39:32;;;;;;;;;7.25;5.00;;;;;16.47;100.00;100146.78;5067538;28;45501;-62
2023/11/13 09:42:02;;;;;;;;;3.00;3.00;;;;;16.48;100.00;100153.94;5065559;27;45488;-64
2023/11/13 09:44:31;;;;;;;;;4.25;2.75;;;;;16.51;100.00;100145.66;5063890;28;46430;-62
2023/11/13 09:46:57;;;;;;;;;1.50;1.50;;;;;16.50;100.00;100141.22;5065885;27;45814;-62
2023/11/13 09:49:28;;;;;;;;;2.75;2.00;;;;;16.49;100.00;100170.00;5065972;28;45508;-63
2023/11/13 09:51:57;;;;;;;;;1.25;1.25;;;;;16.49;100.00;100166.44;5074080;27;45563;-62
2023/11/13 09:54:23;;;;;;;;;2.50;2.25;;;;;16.46;100.00;100139.69;5070229;27;45489;-63
2023/11/13 09:56:53;;;;;;;;;3.00;1.50;;;;;16.51;100.00;100164.50;5068822;27;45429;-63
2023/11/13 09:59:20;;;;;;;;;1.00;1.00;;;;;16.54;100.00;100168.81;5059798;27;45571;-63
2023/11/13 10:01:45;;;;;;;;;1.25;1.25;;;;;16.52;100.00;100174.28;5069901;27;45317;-64
2023/11/13 10:04:11;;;;;;;;;2.00;2.00;;;;;16.56;100.00;100183.06;5073855;27;46309;-63
2023/11/13 10:06:39;;;;;;;;;1.25;1.00;;;;;16.55;100.00;100174.09;5065579;27;70813;-64
2023/11/13 10:09:04;;;;;;;;;2.00;2.00;;;;;16.56;100.00;100161.50;5066036;27;45490;-63
2023/11/13 10:11:30;;;;;;;;;6.50;2.00;;;;;16.57;100.00;100163.22;5066622;27;73326;-64
2023/11/13 10:14:12;;;;;;;;;1.00;1.00;;;;;16.58;100.00;100173.91;5060495;27;45846;-64
2023/11/13 10:16:38;;;;;;;;;3.00;1.00;;;;;16.59;100.00;100164.84;5066152;27;45625;-63
2023/11/13 10:19:16;;;;;;;;;2.00;2.00;;;;;16.61;100.00;100168.31;5073265;27;45883;-63
2023/11/13 10:21:43;;;;;;;;;2.25;1.50;;;;;16.65;100.00;100177.03;5071587;27;45331;-63
2023/11/13 10:24:15;;;;;;;;;2.25;1.00;;;;;16.64;100.00;100178.88;5068834;27;45413;-64
2023/11/13 10:26:42;;;;;;;;;1.00;1.00;;;;;16.61;100.00;100168.31;5065483;27;45347;-63
2023/11/13 10:29:26;;;;;;;;;2.00;1.00;;;;;16.67;100.00;100173.28;5066183;27;45436;-63
2023/11/13 10:31:58;;;;;;;;;1.50;1.50;;;;;16.67;100.00;100183.19;5072072;27;45567;-63
2023/11/13 10:34:38;;;;;;;;;1.00;1.00;;;;;16.66;100.00;100168.00;5069928;27;45509;-63
2023/11/13 10:37:12;;;;;;;;;1.00;1.00;;;;;16.72;100.00;100175.66;5069787;27;45717;-63
2023/11/13 10:39:42;;;;;;;;;1.00;1.00;;;;;16.74;100.00;100159.38;5072340;28;45985;-63
2023/11/13 10:42:26;;;;;;;;;1.75;1.75;;;;;16.75;100.00;100153.91;5067093;27;45576;-64
2023/11/13 10:44:59;;;;;;;;;1.50;1.00;;;;;16.73;100.00;100152.28;5081726;27;46101;-65
2023/11/13 10:47:35;;;;;;;;;1.00;1.00;;;;;16.79;100.00;100157.25;5068153;27;45545;-63
2023/11/13 10:50:01;;;;;;;;;1.00;1.00;;;;;16.81;100.00;100161.56;5074572;27;45445;-63
2023/11/13 10:52:28;;;;;;;;;2.00;1.00;;;;;16.83;100.00;100161.47;5073214;27;45697;-63
2023/11/13 10:54:56;;;;;;;;;1.00;1.00;;;;;16.88;100.00;100163.91;5075503;28;46098;-63
2023/11/13 10:57:23;;;;;;;;;1.00;1.00;;;;;16.90;100.00;100164.66;5067372;27;45472;-63
2023/11/13 10:59:52;;;;;;;;;2.00;1.25;;;;;16.88;100.00;100142.34;5067228;27;45542;-65
2023/11/13 11:02:25;;;;;;;;;1.00;1.00;;;;;16.94;100.00;100158.94;5070257;27;45365;-65
2023/11/13 11:04:53;;;;;;;;;2.75;1.75;;;;;16.96;100.00;100170.50;5070152;28;45541;-65
2023/11/13 11:07:24;;;;;;;;;1.75;1.75;;;;;16.98;100.00;100160.47;5062144;27;45410;-65
2023/11/13 11:09:56;;;;;;;;;1.25;1.25;;;;;17.01;100.00;100156.69;5076972;27;45505;-65
2023/11/13 11:12:23;;;;;;;;;2.00;1.00;;;;;17.01;100.00;100157.56;5072111;27;45454;-65
2023/11/13 11:15:05;;;;;;;;;1.00;1.00;;;;;17.03;100.00;100143.97;5066290;28;45445;-65
2023/11/13 11:17:33;;;;;;;;;1.00;1.00;;;;;17.04;100.00;100140.31;5066322;28;45334;-65